createdAt,value
2024-01-06T00:01:35.355Z,5.29
2024-01-06T00:04:24.651Z,5.30
2024-01-06T00:07:14.905Z,5.32
2024-01-06T00:10:04.459Z,5.29
2024-01-06T00:12:53.859Z,5.30
2024-01-06T00:15:44.746Z,5.27
2024-01-06T00:18:34.238Z,5.35
2024-01-06T00:21:23.709Z,5.37
2024-01-06T00:24:13.198Z,5.40
2024-01-06T00:27:02.540Z,5.37
2024-01-06T00:29:52.028Z,5.43
2024-01-06T00:32:42.715Z,5.40
2024-01-06T00:35:32.145Z,5.37
2024-01-06T00:38:21.689Z,5.37
2024-01-06T00:41:11.112Z,5.39
2024-01-06T00:44:00.523Z,5.36
2024-01-06T00:46:49.868Z,5.34
2024-01-06T00:49:40.772Z,5.29
2024-01-06T00:52:30.335Z,5.27
2024-01-06T00:55:19.914Z,5.28
2024-01-06T00:58:09.930Z,5.25
2024-01-06T01:00:59.514Z,5.28
2024-01-06T01:03:49.109Z,5.28
2024-01-06T01:06:41.220Z,5.27
2024-01-06T01:09:30.732Z,5.26
2024-01-06T01:12:20.154Z,5.24
2024-01-06T01:15:10.605Z,5.23
2024-01-06T01:17:59.943Z,5.16
2024-01-06T01:20:49.316Z,5.16
2024-01-06T01:23:40.016Z,5.16
2024-01-06T01:26:29.313Z,5.15
2024-01-06T01:29:21.324Z,5.14
2024-01-06T01:32:10.886Z,5.11
2024-01-06T01:35:00.340Z,5.15
2024-01-06T01:37:49.670Z,5.13
2024-01-06T01:40:40.291Z,5.17
2024-01-06T01:43:30.286Z,5.17
2024-01-06T01:46:19.615Z,5.18
2024-01-06T01:49:09.266Z,5.09
2024-01-06T01:51:58.661Z,5.17
2024-01-06T01:54:49.903Z,5.18
2024-01-06T01:57:41.031Z,5.14
2024-01-06T02:00:31.012Z,5.13
2024-01-06T02:03:20.923Z,5.10
2024-01-06T02:06:10.328Z,5.12
2024-01-06T02:08:59.989Z,5.03
2024-01-06T02:11:49.233Z,5.03
2024-01-06T02:14:39.900Z,5.10
2024-01-06T02:17:29.147Z,5.11
2024-01-06T02:20:21.273Z,5.07
2024-01-06T02:23:12.138Z,5.11
2024-01-06T02:26:01.413Z,5.07
2024-01-06T02:28:50.660Z,5.10
2024-01-06T02:31:40.180Z,5.12
2024-01-06T02:34:29.674Z,5.12
2024-01-06T02:37:18.966Z,5.06
2024-01-06T02:40:11.982Z,5.06
2024-01-06T02:43:01.379Z,5.07
2024-01-06T02:45:50.984Z,5.08
2024-01-06T02:48:40.930Z,5.04
2024-01-06T02:51:30.281Z,5.00
2024-01-06T02:54:19.647Z,4.95
2024-01-06T02:57:10.613Z,4.91
2024-01-06T03:00:00.038Z,4.93
2024-01-06T03:02:49.448Z,4.93
2024-01-06T03:05:39.307Z,4.90
2024-01-06T03:08:29.007Z,4.83
2024-01-06T03:11:18.262Z,4.85
2024-01-06T03:14:08.899Z,4.79
2024-01-06T03:16:58.335Z,4.83
2024-01-06T03:19:47.756Z,4.80
2024-01-06T03:22:37.131Z,4.75
2024-01-06T03:25:26.469Z,4.77
2024-01-06T03:28:15.774Z,4.76
2024-01-06T03:31:06.782Z,4.75
2024-01-06T03:33:57.235Z,4.71
2024-01-06T03:36:46.831Z,4.72
2024-01-06T03:39:36.144Z,4.73
2024-01-06T03:42:25.715Z,4.74
2024-01-06T03:45:15.211Z,4.73
2024-01-06T03:48:06.711Z,4.65
2024-01-06T03:50:56.611Z,4.69
2024-01-06T03:53:46.036Z,4.58
2024-01-06T03:56:35.352Z,4.66
2024-01-06T03:59:24.687Z,4.63
2024-01-06T04:02:14.023Z,4.59
2024-01-06T04:05:06.354Z,4.53
2024-01-06T04:07:55.730Z,4.49
2024-01-06T04:10:45.046Z,4.45
2024-01-06T04:13:34.316Z,4.43
2024-01-06T04:16:23.680Z,4.40
2024-01-06T04:19:14.175Z,4.40
2024-01-06T04:22:05.051Z,4.39
2024-01-06T04:24:54.398Z,4.39
2024-01-06T04:27:43.937Z,4.37
2024-01-06T04:30:33.308Z,4.35
2024-01-06T04:33:22.781Z,4.36
2024-01-06T04:36:12.192Z,4.34
2024-01-06T04:39:02.913Z,4.36
2024-01-06T04:41:52.566Z,4.35
2024-01-06T04:44:42.153Z,4.27
2024-01-06T04:47:31.840Z,4.30
2024-01-06T04:50:21.167Z,4.28
2024-01-06T04:53:10.855Z,4.19
2024-01-06T04:56:01.541Z,4.23
2024-01-06T04:58:50.752Z,4.27
2024-01-06T05:01:40.097Z,4.26
2024-01-06T05:04:29.886Z,4.24
2024-01-06T05:07:19.278Z,4.21
2024-01-06T05:10:10.646Z,4.24
2024-01-06T05:13:01.361Z,4.24
2024-01-06T05:15:50.849Z,4.22
2024-01-06T05:18:40.341Z,4.31
2024-01-06T05:21:29.823Z,4.30
2024-01-06T05:24:20.428Z,4.26
2024-01-06T05:27:12.461Z,4.29
2024-01-06T05:30:04.681Z,4.30
2024-01-06T05:32:54.002Z,4.31
2024-01-06T05:35:43.597Z,4.28
2024-01-06T05:38:32.899Z,4.31
2024-01-06T05:41:22.171Z,4.28
2024-01-06T05:44:11.453Z,4.24
2024-01-06T05:47:02.414Z,4.27
2024-01-06T05:49:51.667Z,4.28
2024-01-06T05:52:41.043Z,4.24
2024-01-06T05:55:30.921Z,4.26
2024-01-06T05:58:20.174Z,4.24
2024-01-06T06:01:09.567Z,4.25
2024-01-06T06:04:00.345Z,4.23
2024-01-06T06:06:49.658Z,4.24
2024-01-06T06:09:41.159Z,4.23
2024-01-06T06:12:30.640Z,4.19
2024-01-06T06:15:20.219Z,4.22
2024-01-06T06:18:09.692Z,4.21
2024-01-06T06:21:00.616Z,4.18
2024-01-06T06:23:49.829Z,4.19
2024-01-06T06:26:42.115Z,4.18
2024-01-06T06:29:31.683Z,4.20
2024-01-06T06:32:21.120Z,4.20
2024-01-06T06:35:10.905Z,4.13
2024-01-06T06:38:01.676Z,4.22
2024-01-06T06:40:50.952Z,4.17
2024-01-06T06:43:40.690Z,4.17
2024-01-06T06:46:29.947Z,4.19
2024-01-06T06:49:19.380Z,4.14
2024-01-06T06:52:08.705Z,4.18
2024-01-06T06:54:59.450Z,4.15
2024-01-06T06:57:48.801Z,4.16
2024-01-06T07:00:39.428Z,4.20
2024-01-06T07:03:28.995Z,4.20
2024-01-06T07:06:18.362Z,4.22
2024-01-06T07:09:07.677Z,4.24
2024-01-06T07:11:58.579Z,4.23
2024-01-06T07:14:48.603Z,4.20
2024-01-06T07:17:38.125Z,4.27
2024-01-06T07:20:27.577Z,4.29
2024-01-06T07:23:16.958Z,4.27
2024-01-06T07:26:06.378Z,4.29
2024-01-06T07:28:57.265Z,4.27
2024-01-06T07:31:46.661Z,4.34
2024-01-06T07:34:36.171Z,4.31
2024-01-06T07:37:25.675Z,4.29
2024-01-06T07:40:17.885Z,4.26
2024-01-06T07:43:07.552Z,4.22
2024-01-06T07:45:58.371Z,4.24
2024-01-06T07:48:47.834Z,4.25
2024-01-06T07:51:37.220Z,4.21
2024-01-06T07:54:26.637Z,4.19
2024-01-06T07:57:15.960Z,4.16
2024-01-06T08:00:06.775Z,4.13
2024-01-06T08:03:07.290Z,4.14
2024-01-06T08:05:56.958Z,4.12
2024-01-06T08:08:47.103Z,4.10
2024-01-06T08:11:36.422Z,4.10
2024-01-06T08:14:25.694Z,4.14
2024-01-06T08:17:17.819Z,4.12
2024-01-06T08:20:12.485Z,4.00
2024-01-06T08:23:01.556Z,4.12
2024-01-06T08:25:51.182Z,4.14
2024-01-06T08:28:40.709Z,4.12
2024-01-06T08:31:30.166Z,4.16
2024-01-06T08:34:19.851Z,4.11
2024-01-06T08:37:10.779Z,4.11
2024-01-06T08:40:00.149Z,4.13
2024-01-06T08:42:49.548Z,4.15
2024-01-06T08:45:39.098Z,4.16
2024-01-06T08:48:29.610Z,4.17
2024-01-06T08:51:21.725Z,4.16
2024-01-06T08:54:12.753Z,4.14
2024-01-06T08:57:02.111Z,4.10
2024-01-06T08:59:51.614Z,4.13
2024-01-06T09:02:40.930Z,4.14
2024-01-06T09:05:30.297Z,4.20
2024-01-06T09:08:19.631Z,4.21
2024-01-06T09:11:10.403Z,4.19
2024-01-06T09:13:59.705Z,4.18
2024-01-06T09:16:48.972Z,4.23
2024-01-06T09:19:38.479Z,4.21
2024-01-06T09:22:27.871Z,4.24
2024-01-06T09:25:17.295Z,4.31
2024-01-06T09:28:08.326Z,4.29
2024-01-06T09:30:57.812Z,4.28
2024-01-06T09:33:47.276Z,4.35
2024-01-06T09:36:37.074Z,4.26
2024-01-06T09:39:26.413Z,4.32
2024-01-06T09:42:16.562Z,4.34
2024-01-06T09:45:09.185Z,4.39
2024-01-06T09:47:59.972Z,4.46
2024-01-06T09:50:51.321Z,4.46
2024-01-06T09:53:50.801Z,4.46
2024-01-06T09:56:41.772Z,4.52
2024-01-06T09:59:35.983Z,4.56
2024-01-06T10:02:27.037Z,4.57
2024-01-06T10:05:17.785Z,4.63
2024-01-06T10:08:07.930Z,4.63
2024-01-06T10:10:57.414Z,4.68
2024-01-06T10:13:46.974Z,4.78
2024-01-06T10:16:37.942Z,4.84
2024-01-06T10:19:28.818Z,4.87
2024-01-06T10:22:19.086Z,4.87
2024-01-06T10:25:10.243Z,4.92
2024-01-06T10:27:59.581Z,4.97
2024-01-06T10:30:49.035Z,5.05
2024-01-06T10:33:38.904Z,5.08
2024-01-06T10:36:30.909Z,5.09
2024-01-06T10:39:20.780Z,5.17
2024-01-06T10:42:12.058Z,5.19
2024-01-06T10:45:02.105Z,5.20
2024-01-06T10:47:52.345Z,5.25
2024-01-06T10:50:41.834Z,5.31
2024-01-06T10:53:33.026Z,5.33
2024-01-06T10:56:23.205Z,5.31
2024-01-06T10:59:15.847Z,5.36
2024-01-06T11:02:07.148Z,5.45
2024-01-06T11:04:56.920Z,5.45
2024-01-06T11:07:48.494Z,5.46
2024-01-06T11:10:43.089Z,5.54
2024-01-06T11:13:32.420Z,5.55
2024-01-06T11:16:40.102Z,5.57
2024-01-06T11:19:56.222Z,5.57
2024-01-06T11:22:46.966Z,5.60
2024-01-06T11:25:36.445Z,5.72
2024-01-06T11:28:28.406Z,5.80
2024-01-06T11:31:17.840Z,5.83
2024-01-06T11:34:18.207Z,5.86
2024-01-06T11:37:10.490Z,5.84
2024-01-06T11:40:00.085Z,5.91
2024-01-06T11:42:50.885Z,5.97
2024-01-06T11:45:44.215Z,6.02
2024-01-06T11:48:34.274Z,6.10
2024-01-06T11:51:23.680Z,6.16
2024-01-06T11:54:13.851Z,6.19
2024-01-06T11:57:03.256Z,6.28
2024-01-06T11:59:53.291Z,6.72
2024-01-06T12:02:44.529Z,7.63
2024-01-06T12:05:33.866Z,8.61
2024-01-06T12:08:23.176Z,9.46
2024-01-06T12:11:12.520Z,10.32
2024-01-06T12:14:02.280Z,10.81
2024-01-06T12:16:51.521Z,11.37
2024-01-06T12:19:44.113Z,11.88
2024-01-06T12:22:33.766Z,12.04
2024-01-06T12:25:24.163Z,11.99
2024-01-06T12:28:13.716Z,11.96
2024-01-06T12:31:06.706Z,11.48
2024-01-06T12:33:57.025Z,11.17
2024-01-06T12:36:49.690Z,10.69
2024-01-06T12:39:39.140Z,10.26
2024-01-06T12:42:28.647Z,10.00
2024-01-06T12:45:18.502Z,9.71
2024-01-06T12:48:09.340Z,9.74
2024-01-06T12:50:58.630Z,9.67
2024-01-06T12:53:49.252Z,9.76
2024-01-06T12:56:38.724Z,9.78
2024-01-06T12:59:28.068Z,9.90
2024-01-06T13:02:17.623Z,9.95
2024-01-06T13:05:07.508Z,10.12
2024-01-06T13:07:57.133Z,10.27
2024-01-06T13:10:47.882Z,10.39
2024-01-06T13:13:37.320Z,10.41
2024-01-06T13:16:26.841Z,10.51
2024-01-06T13:19:16.300Z,10.62
2024-01-06T13:22:06.076Z,10.63
2024-01-06T13:24:55.464Z,10.31
2024-01-06T13:27:46.685Z,9.97
2024-01-06T13:30:36.754Z,9.47
2024-01-06T13:33:26.231Z,9.14
2024-01-06T13:36:18.770Z,8.90
2024-01-06T13:39:08.294Z,8.69
2024-01-06T13:41:57.765Z,8.40
2024-01-06T13:44:49.441Z,8.27
2024-01-06T13:47:38.779Z,8.22
2024-01-06T13:50:28.205Z,8.11
2024-01-06T13:53:18.360Z,8.04
2024-01-06T13:56:08.821Z,7.97
2024-01-06T13:58:58.430Z,7.96
2024-01-06T14:01:49.256Z,7.93
2024-01-06T14:04:38.860Z,7.85
2024-01-06T14:07:28.343Z,7.87
2024-01-06T14:10:18.279Z,7.84
2024-01-06T14:13:08.922Z,7.89
2024-01-06T14:15:58.564Z,7.82
2024-01-06T14:18:49.727Z,7.84
2024-01-06T14:21:40.007Z,7.84
2024-01-06T14:24:29.310Z,7.85
2024-01-06T14:27:18.757Z,7.84
2024-01-06T14:30:11.159Z,7.82
2024-01-06T14:33:00.636Z,7.85
2024-01-06T14:35:52.108Z,7.75
2024-01-06T14:38:41.583Z,7.82
2024-01-06T14:41:30.932Z,7.81
2024-01-06T14:44:21.169Z,7.80
2024-01-06T14:47:10.479Z,7.76
2024-01-06T14:49:59.863Z,7.74
2024-01-06T14:52:50.722Z,7.66
2024-01-06T14:55:40.145Z,7.68
2024-01-06T14:58:30.522Z,7.67
2024-01-06T15:01:19.882Z,7.61
2024-01-06T15:04:09.448Z,7.63
2024-01-06T15:06:58.856Z,7.65
2024-01-06T15:09:49.598Z,7.56
2024-01-06T15:12:39.046Z,7.56
2024-01-06T15:15:28.612Z,7.56
2024-01-06T15:18:18.188Z,7.58
2024-01-06T15:21:07.722Z,7.61
2024-01-06T15:23:56.994Z,7.61
2024-01-06T15:26:47.703Z,7.59
2024-01-06T15:29:36.995Z,7.61
2024-01-06T15:32:26.335Z,7.59
2024-01-06T15:35:15.759Z,7.55
2024-01-06T15:38:05.465Z,7.56
2024-01-06T15:40:54.806Z,7.53
2024-01-06T15:43:45.576Z,7.50
2024-01-06T15:46:34.884Z,7.49
2024-01-06T15:49:24.360Z,7.43
2024-01-06T15:52:13.689Z,7.41
2024-01-06T15:55:03.056Z,7.37
2024-01-06T15:57:52.490Z,7.37
2024-01-06T16:00:43.538Z,7.34
2024-01-06T16:03:32.921Z,7.29
2024-01-06T16:06:22.364Z,7.25
2024-01-06T16:09:12.159Z,7.24
2024-01-06T16:12:01.470Z,7.21
2024-01-06T16:14:50.824Z,7.16
2024-01-06T16:17:41.665Z,7.10
2024-01-06T16:20:31.007Z,7.10
2024-01-06T16:23:20.378Z,7.08
2024-01-06T16:26:10.797Z,7.03
2024-01-06T16:29:00.038Z,6.99
2024-01-06T16:31:49.522Z,6.96
2024-01-06T16:34:42.860Z,6.94
2024-01-06T16:37:31.979Z,6.91
2024-01-06T16:40:21.633Z,6.85
2024-01-06T16:43:10.988Z,6.84
2024-01-06T16:46:00.394Z,6.80
2024-01-06T16:48:50.139Z,6.73
2024-01-06T16:51:40.998Z,6.70
2024-01-06T16:54:30.938Z,6.65
2024-01-06T16:57:20.995Z,6.61
2024-01-06T17:00:11.854Z,6.55
2024-01-06T17:03:01.096Z,6.55
2024-01-06T17:05:50.431Z,6.51
2024-01-06T17:08:42.161Z,6.54
2024-01-06T17:11:31.450Z,6.50
2024-01-06T17:14:20.741Z,6.51
2024-01-06T17:17:10.063Z,6.44
2024-01-06T17:19:59.446Z,6.49
2024-01-06T17:22:50.526Z,6.45
2024-01-06T17:25:41.886Z,6.39
2024-01-06T17:28:31.169Z,6.41
2024-01-06T17:31:20.617Z,6.35
2024-01-06T17:34:10.934Z,6.32
2024-01-06T17:37:00.496Z,6.30
2024-01-06T17:39:49.920Z,6.26
2024-01-06T17:42:40.655Z,6.23
2024-01-06T17:45:29.971Z,6.20
2024-01-06T17:48:19.453Z,6.15
2024-01-06T17:51:08.789Z,6.10
2024-01-06T17:53:58.816Z,6.06
2024-01-06T17:56:48.290Z,6.07
2024-01-06T17:59:38.924Z,6.05
2024-01-06T18:02:28.263Z,6.03
2024-01-06T18:05:18.813Z,6.01
2024-01-06T18:08:08.767Z,5.99
2024-01-06T18:10:57.984Z,5.98
2024-01-06T18:13:47.350Z,5.95
2024-01-06T18:16:40.715Z,5.91
2024-01-06T18:19:30.352Z,5.86
2024-01-06T18:22:19.693Z,5.87
2024-01-06T18:25:10.248Z,5.83
2024-01-06T18:27:59.596Z,5.84
2024-01-06T18:30:49.090Z,5.80
2024-01-06T18:33:40.061Z,5.78
2024-01-06T18:36:29.470Z,5.77
2024-01-06T18:39:19.872Z,5.74
2024-01-06T18:42:10.326Z,5.71
2024-01-06T18:44:59.876Z,5.69
2024-01-06T18:47:49.203Z,5.65
2024-01-06T18:50:40.434Z,5.61
2024-01-06T18:53:30.125Z,5.58
2024-01-06T18:56:19.443Z,5.55
2024-01-06T18:59:09.722Z,5.56
2024-01-06T19:01:59.077Z,5.56
2024-01-06T19:04:48.518Z,5.56
2024-01-06T19:07:39.427Z,5.59
2024-01-06T19:10:28.924Z,5.60
2024-01-06T19:13:18.766Z,5.58
2024-01-06T19:16:08.727Z,5.65
2024-01-06T19:18:58.137Z,5.71
2024-01-06T19:21:47.869Z,5.73
2024-01-06T19:24:43.429Z,5.77
2024-01-06T19:27:34.524Z,5.78
2024-01-06T19:30:23.968Z,5.80
2024-01-06T19:33:13.473Z,5.80
2024-01-06T19:36:03.355Z,5.77
2024-01-06T19:38:52.695Z,5.78
2024-01-06T19:41:43.495Z,5.77
2024-01-06T19:44:32.867Z,5.76
2024-01-06T19:47:22.293Z,5.76
2024-01-06T19:50:12.243Z,5.73
2024-01-06T19:53:01.584Z,5.73
2024-01-06T19:55:50.879Z,5.74
2024-01-06T19:58:41.608Z,5.70
2024-01-06T20:01:31.011Z,5.70
2024-01-06T20:04:20.412Z,5.69
2024-01-06T20:07:09.865Z,5.66
2024-01-06T20:09:59.276Z,5.64
2024-01-06T20:12:48.954Z,5.61
2024-01-06T20:15:40.770Z,5.59
2024-01-06T20:18:31.054Z,5.59
2024-01-06T20:21:21.026Z,5.58
2024-01-06T20:24:10.472Z,5.54
2024-01-06T20:26:59.846Z,5.56
2024-01-06T20:29:50.269Z,5.55
2024-01-06T20:32:41.700Z,5.47
2024-01-06T20:35:31.395Z,5.52
2024-01-06T20:38:22.545Z,5.52
2024-01-06T20:41:13.389Z,5.50
2024-01-06T20:44:05.259Z,5.47
2024-01-06T20:46:55.782Z,5.47
2024-01-06T20:49:46.538Z,5.43
2024-01-06T20:52:35.883Z,5.44
2024-01-06T20:55:25.253Z,5.42
2024-01-06T20:58:14.787Z,5.41
2024-01-06T21:01:05.021Z,5.40
2024-01-06T21:03:56.392Z,5.35
2024-01-06T21:06:47.224Z,5.35
2024-01-06T21:09:36.878Z,5.36
2024-01-06T21:12:26.290Z,5.39
2024-01-06T21:15:15.829Z,5.37
2024-01-06T21:18:05.467Z,5.38
2024-01-06T21:20:55.013Z,5.34
2024-01-06T21:23:49.084Z,5.35
2024-01-06T21:26:39.119Z,5.36
2024-01-06T21:29:28.492Z,5.30
2024-01-06T21:32:17.970Z,5.32
2024-01-06T21:35:08.510Z,5.33
2024-01-06T21:37:58.353Z,5.31
2024-01-06T21:40:49.774Z,5.29
2024-01-06T21:43:39.142Z,5.27
2024-01-06T21:46:28.468Z,5.27
2024-01-06T21:49:17.910Z,5.25
2024-01-06T21:52:09.436Z,5.26
2024-01-06T21:54:58.810Z,5.24
2024-01-06T21:57:49.487Z,5.22
2024-01-06T22:00:38.934Z,5.18
2024-01-06T22:03:28.280Z,5.14
2024-01-06T22:06:17.651Z,5.11
2024-01-06T22:09:11.347Z,5.10
2024-01-06T22:12:02.277Z,5.03
2024-01-06T22:14:52.933Z,5.01
2024-01-06T22:17:42.459Z,5.01
2024-01-06T22:20:32.330Z,5.01
2024-01-06T22:23:21.848Z,4.99
2024-01-06T22:26:11.141Z,4.86
2024-01-06T22:29:00.652Z,4.95
2024-01-06T22:31:51.499Z,4.94
2024-01-06T22:34:45.672Z,4.90
2024-01-06T22:37:35.218Z,4.92
2024-01-06T22:40:24.480Z,4.92
2024-01-06T22:43:13.778Z,4.90
2024-01-06T22:46:03.556Z,4.84
2024-01-06T22:48:54.547Z,4.85
2024-01-06T22:51:43.944Z,4.84
2024-01-06T22:54:33.365Z,4.84
2024-01-06T22:57:22.876Z,4.85
2024-01-06T23:00:16.632Z,4.86
2024-01-06T23:03:07.648Z,4.84
2024-01-06T23:05:58.493Z,4.86
2024-01-06T23:08:47.922Z,4.85
2024-01-06T23:11:37.278Z,4.86
2024-01-06T23:14:26.857Z,4.86
2024-01-06T23:17:16.294Z,4.82
2024-01-06T23:20:06.311Z,4.84
2024-01-06T23:22:57.162Z,4.86
2024-01-06T23:25:46.547Z,4.84
2024-01-06T23:28:37.039Z,4.83
2024-01-06T23:31:26.640Z,4.81
2024-01-06T23:34:26.666Z,4.80
2024-01-06T23:37:23.717Z,4.80
2024-01-06T23:40:15.763Z,4.78
2024-01-06T23:43:08.200Z,4.83
2024-01-06T23:46:00.560Z,4.80
2024-01-06T23:48:50.290Z,4.86
2024-01-06T23:51:39.718Z,4.89
2024-01-06T23:54:29.141Z,4.88
2024-01-06T23:57:20.066Z,4.93
